TAR740 EDDF-DTTA
Flight info
| Callsign | TAR740 |
|---|---|
| Flight time | N/A |
| Altitude | 37000 |
| Route | ANEKI2L/18 ANEKI Y163 NATOR DCT TRA DCT RIPUS DCT GERSA DCT SOSON DCT ODINA DCT PIDAD DCT TALEP DCT VAREK DCT LOKDU DCT PELOS DCT IPROM DCT DEXUL DCT CAR DCT NOLSI A868 MEDAR UA868 TUC |
| Aircraft | A320/M-SDE3FGHIRWY/LB1 |
Departure
| Time | 2026-04-14 17:19 |
|---|---|
| Airport | Frankfurt Main Airport (EDDF) |
Arrival
| Time | N/A |
|---|---|
| Airport | Tunis Carthage International Airport (DTTA) |
| Time | Latitude | Longitude | Altitude | Speed | Heading |
|---|---|---|---|---|---|
| 2026-04-14 16:43 | 50.05154 | 8.59076 | 362 ft | 0 kts | 339° |
| 2026-04-14 17:05 | 50.05147 | 8.59079 | 359 ft | 4 kts | 339° |
| 2026-04-14 17:06 | 50.05122 | 8.59094 | 361 ft | 4 kts | 339° |
| 2026-04-14 17:06 | 50.05098 | 8.59108 | 361 ft | 4 kts | 329° |
| 2026-04-14 17:06 | 50.05086 | 8.59136 | 363 ft | 4 kts | 261° |
| 2026-04-14 17:06 | 50.05092 | 8.59167 | 363 ft | 4 kts | 249° |
| 2026-04-14 17:07 | 50.05094 | 8.59178 | 361 ft | 0 kts | 249° |
| 2026-04-14 17:09 | 50.05093 | 8.59172 | 359 ft | 2 kts | 249° |
| 2026-04-14 17:10 | 50.05083 | 8.59130 | 362 ft | 6 kts | 250° |
| 2026-04-14 17:10 | 50.05063 | 8.59047 | 360 ft | 11 kts | 250° |
| 2026-04-14 17:10 | 50.05040 | 8.58950 | 362 ft | 12 kts | 249° |
| 2026-04-14 17:10 | 50.05009 | 8.58823 | 364 ft | 12 kts | 249° |
| 2026-04-14 17:11 | 50.04980 | 8.58709 | 362 ft | 11 kts | 242° |
| 2026-04-14 17:11 | 50.04902 | 8.58676 | 361 ft | 14 kts | 162° |
| 2026-04-14 17:11 | 50.04806 | 8.58729 | 366 ft | 15 kts | 159° |
| 2026-04-14 17:11 | 50.04718 | 8.58735 | 374 ft | 12 kts | 221° |
| 2026-04-14 17:12 | 50.04671 | 8.58562 | 371 ft | 23 kts | 251° |
| 2026-04-14 17:12 | 50.04603 | 8.58285 | 369 ft | 31 kts | 250° |
| 2026-04-14 17:12 | 50.04530 | 8.57973 | 368 ft | 32 kts | 251° |
| 2026-04-14 17:12 | 50.04457 | 8.57665 | 365 ft | 29 kts | 249° |
| 2026-04-14 17:13 | 50.04384 | 8.57354 | 365 ft | 31 kts | 250° |
| 2026-04-14 17:13 | 50.04307 | 8.57032 | 361 ft | 32 kts | 250° |
| 2026-04-14 17:13 | 50.04233 | 8.56721 | 361 ft | 32 kts | 249° |
| 2026-04-14 17:13 | 50.04154 | 8.56390 | 356 ft | 34 kts | 250° |
| 2026-04-14 17:14 | 50.04080 | 8.56082 | 360 ft | 28 kts | 250° |
| 2026-04-14 17:14 | 50.04009 | 8.55784 | 354 ft | 30 kts | 249° |
| 2026-04-14 17:14 | 50.03934 | 8.55469 | 356 ft | 31 kts | 249° |
| 2026-04-14 17:14 | 50.03858 | 8.55148 | 354 ft | 32 kts | 249° |
| 2026-04-14 17:15 | 50.03778 | 8.54818 | 350 ft | 33 kts | 250° |
| 2026-04-14 17:15 | 50.03696 | 8.54477 | 345 ft | 35 kts | 250° |
| 2026-04-14 17:15 | 50.03644 | 8.54246 | 346 ft | 22 kts | 253° |
| 2026-04-14 17:15 | 50.03585 | 8.54017 | 337 ft | 24 kts | 249° |
| 2026-04-14 17:16 | 50.03527 | 8.53768 | 337 ft | 26 kts | 249° |
| 2026-04-14 17:16 | 50.03461 | 8.53489 | 335 ft | 28 kts | 249° |
| 2026-04-14 17:16 | 50.03390 | 8.53199 | 333 ft | 30 kts | 250° |
| 2026-04-14 17:16 | 50.03315 | 8.52891 | 331 ft | 31 kts | 250° |
| 2026-04-14 17:17 | 50.03246 | 8.52655 | 335 ft | 21 kts | 218° |
| 2026-04-14 17:17 | 50.03143 | 8.52596 | 335 ft | 15 kts | 184° |
| 2026-04-14 17:17 | 50.03058 | 8.52598 | 335 ft | 11 kts | 180° |
| 2026-04-14 17:17 | 50.02987 | 8.52598 | 333 ft | 9 kts | 180° |
| 2026-04-14 17:18 | 50.02926 | 8.52598 | 334 ft | 8 kts | 179° |
| 2026-04-14 17:18 | 50.02848 | 8.52599 | 335 ft | 21 kts | 179° |
| 2026-04-14 17:18 | 50.02645 | 8.52602 | 335 ft | 69 kts | 180° |
| 2026-04-14 17:18 | 50.01938 | 8.52609 | 334 ft | 132 kts | 179° |
| 2026-04-14 17:19 | 50.00850 | 8.52618 | 377 ft | 176 kts | 179° |
| 2026-04-14 17:19 | 49.99647 | 8.52665 | 1195 ft | 171 kts | 176° |
| 2026-04-14 17:19 | 49.98459 | 8.52772 | 2032 ft | 175 kts | 177° |
| 2026-04-14 17:19 | 49.97147 | 8.52871 | 2429 ft | 196 kts | 177° |
| 2026-04-14 17:20 | 49.95703 | 8.52972 | 2706 ft | 221 kts | 177° |
| 2026-04-14 17:20 | 49.94133 | 8.53078 | 3372 ft | 230 kts | 177° |
| 2026-04-14 17:20 | 49.92516 | 8.53183 | 4221 ft | 233 kts | 177° |
| 2026-04-14 17:20 | 49.90883 | 8.53290 | 5096 ft | 236 kts | 177° |
| 2026-04-14 17:21 | 49.89218 | 8.53400 | 5968 ft | 237 kts | 177° |
| 2026-04-14 17:21 | 49.87542 | 8.53513 | 6839 ft | 238 kts | 177° |
| 2026-04-14 17:21 | 49.85880 | 8.53626 | 7666 ft | 240 kts | 177° |
| 2026-04-14 17:21 | 49.84212 | 8.53741 | 8514 ft | 241 kts | 177° |
| 2026-04-14 17:22 | 49.82527 | 8.53857 | 9412 ft | 241 kts | 178° |
| 2026-04-14 17:22 | 49.80836 | 8.53973 | 10272 ft | 242 kts | 178° |
| 2026-04-14 17:22 | 49.79128 | 8.54086 | 11026 ft | 245 kts | 178° |
| 2026-04-14 17:22 | 49.77378 | 8.54053 | 11706 ft | 252 kts | 185° |
| 2026-04-14 17:23 | 49.75523 | 8.53805 | 11977 ft | 276 kts | 185° |
| 2026-04-14 17:23 | 49.73555 | 8.53542 | 12230 ft | 299 kts | 185° |
| 2026-04-14 17:23 | 49.71385 | 8.53253 | 12451 ft | 322 kts | 185° |
| 2026-04-14 17:23 | 49.69111 | 8.52952 | 12978 ft | 332 kts | 185° |
| 2026-04-14 17:24 | 49.66793 | 8.52644 | 13674 ft | 338 kts | 185° |
| 2026-04-14 17:24 | 49.64395 | 8.52329 | 14333 ft | 343 kts | 185° |
| 2026-04-14 17:24 | 49.62010 | 8.52016 | 14970 ft | 347 kts | 185° |
| 2026-04-14 17:24 | 49.59561 | 8.51693 | 15624 ft | 350 kts | 185° |
| 2026-04-14 17:25 | 49.57121 | 8.51369 | 16272 ft | 354 kts | 185° |
| 2026-04-14 17:25 | 49.54623 | 8.51042 | 16922 ft | 357 kts | 185° |
| 2026-04-14 17:25 | 49.52123 | 8.50713 | 17562 ft | 361 kts | 185° |
| 2026-04-14 17:25 | 49.49582 | 8.50374 | 18191 ft | 365 kts | 185° |
| 2026-04-14 17:26 | 49.47040 | 8.50038 | 18771 ft | 368 kts | 185° |
| 2026-04-14 17:26 | 49.44479 | 8.49703 | 19330 ft | 371 kts | 185° |
| 2026-04-14 17:26 | 49.41860 | 8.49364 | 19906 ft | 374 kts | 185° |
| 2026-04-14 17:26 | 49.39290 | 8.49030 | 20457 ft | 377 kts | 185° |
| 2026-04-14 17:27 | 49.36630 | 8.48683 | 21039 ft | 380 kts | 185° |
| 2026-04-14 17:27 | 49.33995 | 8.48339 | 21580 ft | 382 kts | 185° |
| 2026-04-14 17:27 | 49.31293 | 8.47986 | 22154 ft | 385 kts | 185° |
| 2026-04-14 17:27 | 49.28625 | 8.47638 | 22692 ft | 388 kts | 185° |
| 2026-04-14 17:28 | 49.25893 | 8.47284 | 23232 ft | 391 kts | 185° |
| 2026-04-14 17:28 | 49.23234 | 8.46942 | 23734 ft | 394 kts | 185° |
| 2026-04-14 17:28 | 49.20559 | 8.46595 | 24150 ft | 397 kts | 185° |
| 2026-04-14 17:28 | 49.17798 | 8.46235 | 24556 ft | 400 kts | 185° |
| 2026-04-14 17:29 | 49.15015 | 8.45870 | 24952 ft | 403 kts | 185° |
| 2026-04-14 17:29 | 49.12195 | 8.45502 | 25346 ft | 406 kts | 185° |
| 2026-04-14 17:29 | 49.09346 | 8.45133 | 25738 ft | 409 kts | 185° |
| 2026-04-14 17:29 | 49.06501 | 8.44716 | 26099 ft | 412 kts | 189° |
| 2026-04-14 17:30 | 49.03678 | 8.43823 | 26474 ft | 415 kts | 193° |
| 2026-04-14 17:30 | 49.00854 | 8.42834 | 26851 ft | 417 kts | 193° |
| 2026-04-14 17:30 | 48.98018 | 8.41841 | 27215 ft | 420 kts | 193° |
| 2026-04-14 17:30 | 48.95175 | 8.40848 | 27570 ft | 423 kts | 193° |
| 2026-04-14 17:31 | 48.92259 | 8.39830 | 27935 ft | 425 kts | 193° |
| 2026-04-14 17:31 | 48.89369 | 8.38824 | 28280 ft | 428 kts | 193° |
| 2026-04-14 17:31 | 48.86455 | 8.37817 | 28631 ft | 430 kts | 193° |
| 2026-04-14 17:31 | 48.83515 | 8.36804 | 28950 ft | 433 kts | 193° |
| 2026-04-14 17:32 | 48.80565 | 8.35788 | 29261 ft | 436 kts | 193° |
| 2026-04-14 17:32 | 48.78562 | 8.35098 | 29473 ft | 438 kts | 193° |
| 2026-04-14 17:32 | 48.75559 | 8.34039 | 29791 ft | 441 kts | 194° |
| 2026-04-14 17:32 | 48.72561 | 8.32946 | 30080 ft | 443 kts | 194° |
| 2026-04-14 17:33 | 48.69550 | 8.31832 | 30325 ft | 446 kts | 194° |
| 2026-04-14 17:33 | 48.66496 | 8.30702 | 30578 ft | 449 kts | 194° |
| 2026-04-14 17:33 | 48.63452 | 8.29578 | 30821 ft | 451 kts | 194° |
| 2026-04-14 17:34 | 48.57279 | 8.27317 | 31266 ft | 456 kts | 194° |
| 2026-04-14 17:34 | 48.54139 | 8.26181 | 31500 ft | 458 kts | 194° |
| 2026-04-14 17:34 | 48.50982 | 8.25243 | 31755 ft | 459 kts | 187° |
| 2026-04-14 17:34 | 48.47760 | 8.24991 | 32049 ft | 459 kts | 178° |
| 2026-04-14 17:35 | 48.44574 | 8.25449 | 32325 ft | 459 kts | 170° |
| 2026-04-14 17:35 | 48.41376 | 8.26236 | 32619 ft | 459 kts | 170° |
| 2026-04-14 17:35 | 48.38181 | 8.27018 | 32931 ft | 459 kts | 171° |
| 2026-04-14 17:35 | 48.34983 | 8.27794 | 33209 ft | 460 kts | 171° |
| 2026-04-14 17:36 | 48.31821 | 8.28555 | 33501 ft | 460 kts | 171° |